sensor_id;sensor_type;location;lat;lon;timestamp;pressure;altitude;pressure_sealevel;temperature;humidity
41703;BME280;861;48.808;9.006;2023-08-24T00:01:48;97319.09;;;22.86;66.75
41703;BME280;861;48.808;9.006;2023-08-24T00:04:15;97324.47;;;22.81;66.96
41703;BME280;861;48.808;9.006;2023-08-24T00:06:41;97324.31;;;22.75;67.04
41703;BME280;861;48.808;9.006;2023-08-24T00:09:08;97317.06;;;22.87;66.80
41703;BME280;861;48.808;9.006;2023-08-24T00:11:34;97311.22;;;22.85;66.61
41703;BME280;861;48.808;9.006;2023-08-24T00:14:01;97315.38;;;22.89;66.59
41703;BME280;861;48.808;9.006;2023-08-24T00:16:28;97314.16;;;22.90;66.81
41703;BME280;861;48.808;9.006;2023-08-24T00:18:55;97326.97;;;22.97;66.32
41703;BME280;861;48.808;9.006;2023-08-24T00:21:21;97310.56;;;22.81;67.08
41703;BME280;861;48.808;9.006;2023-08-24T00:23:50;97308.84;;;22.74;66.92
41703;BME280;861;48.808;9.006;2023-08-24T00:26:17;97304.38;;;22.67;67.47
41703;BME280;861;48.808;9.006;2023-08-24T00:28:44;97301.09;;;22.60;68.10
41703;BME280;861;48.808;9.006;2023-08-24T00:31:12;97298.50;;;22.65;68.03
41703;BME280;861;48.808;9.006;2023-08-24T00:33:41;97298.84;;;22.67;67.91
41703;BME280;861;48.808;9.006;2023-08-24T00:36:07;97295.13;;;22.71;67.65
41703;BME280;861;48.808;9.006;2023-08-24T00:38:34;97291.44;;;22.74;67.50
41703;BME280;861;48.808;9.006;2023-08-24T00:41:00;97293.38;;;22.55;68.03
41703;BME280;861;48.808;9.006;2023-08-24T00:43:28;97279.44;;;22.46;68.34
41703;BME280;861;48.808;9.006;2023-08-24T00:46:00;97275.97;;;22.54;67.84
41703;BME280;861;48.808;9.006;2023-08-24T00:48:29;97280.09;;;22.50;68.16
41703;BME280;861;48.808;9.006;2023-08-24T00:51:01;97277.19;;;22.53;67.76
41703;BME280;861;48.808;9.006;2023-08-24T00:53:30;97268.66;;;22.48;67.75
41703;BME280;861;48.808;9.006;2023-08-24T01:08:00;97258.47;;;22.36;68.54
41703;BME280;861;48.808;9.006;2023-08-24T01:16:46;97263.34;;;21.92;69.68
41703;BME280;861;48.808;9.006;2023-08-24T01:19:38;97254.09;;;21.95;70.08
41703;BME280;861;48.808;9.006;2023-08-24T01:22:58;97252.97;;;22.14;68.74
41703;BME280;861;48.808;9.006;2023-08-24T01:25:38;97255.47;;;22.21;69.00
41703;BME280;861;48.808;9.006;2023-08-24T01:28:15;97254.22;;;22.22;68.46
41703;BME280;861;48.808;9.006;2023-08-24T01:30:44;97251.13;;;22.20;68.59
41703;BME280;861;48.808;9.006;2023-08-24T01:33:11;97249.91;;;22.12;69.06
41703;BME280;861;48.808;9.006;2023-08-24T01:35:39;97246.75;;;22.01;69.74
41703;BME280;861;48.808;9.006;2023-08-24T01:38:07;97256.31;;;22.09;69.31
41703;BME280;861;48.808;9.006;2023-08-24T01:41:15;97245.22;;;22.09;69.29
41703;BME280;861;48.808;9.006;2023-08-24T01:43:54;97250.28;;;22.02;69.41
41703;BME280;861;48.808;9.006;2023-08-24T01:46:25;97253.66;;;21.97;69.56
41703;BME280;861;48.808;9.006;2023-08-24T01:48:53;97258.91;;;21.95;69.46
41703;BME280;861;48.808;9.006;2023-08-24T01:51:24;97260.97;;;21.60;70.63
41703;BME280;861;48.808;9.006;2023-08-24T01:53:53;97265.69;;;21.51;71.07
41703;BME280;861;48.808;9.006;2023-08-24T01:56:21;97257.28;;;21.42;71.30
41703;BME280;861;48.808;9.006;2023-08-24T01:58:48;97265.09;;;21.34;71.54
41703;BME280;861;48.808;9.006;2023-08-24T02:01:15;97265.03;;;21.47;70.82
41703;BME280;861;48.808;9.006;2023-08-24T02:03:41;97254.41;;;21.67;70.26
41703;BME280;861;48.808;9.006;2023-08-24T02:06:09;97254.34;;;21.79;69.94
41703;BME280;861;48.808;9.006;2023-08-24T02:08:36;97258.53;;;21.84;69.66
41703;BME280;861;48.808;9.006;2023-08-24T02:11:02;97262.38;;;21.86;69.49
41703;BME280;861;48.808;9.006;2023-08-24T02:13:29;97249.94;;;21.69;70.35
41703;BME280;861;48.808;9.006;2023-08-24T02:16:09;97262.47;;;21.52;71.24
41703;BME280;861;48.808;9.006;2023-08-24T02:18:36;97255.50;;;21.48;71.53
41703;BME280;861;48.808;9.006;2023-08-24T02:21:11;97257.06;;;21.49;71.31
41703;BME280;861;48.808;9.006;2023-08-24T02:23:41;97249.50;;;21.71;70.72
41703;BME280;861;48.808;9.006;2023-08-24T02:26:08;97252.47;;;21.76;70.48
41703;BME280;861;48.808;9.006;2023-08-24T02:28:38;97253.50;;;21.70;70.83
41703;BME280;861;48.808;9.006;2023-08-24T02:31:05;97251.59;;;21.79;70.22
41703;BME280;861;48.808;9.006;2023-08-24T02:33:33;97246.50;;;21.78;70.42
41703;BME280;861;48.808;9.006;2023-08-24T02:35:59;97257.44;;;21.81;70.29
41703;BME280;861;48.808;9.006;2023-08-24T02:38:26;97251.28;;;21.86;70.08
41703;BME280;861;48.808;9.006;2023-08-24T02:41:08;97247.88;;;21.61;70.40
41703;BME280;861;48.808;9.006;2023-08-24T02:43:37;97244.53;;;21.66;70.65
41703;BME280;861;48.808;9.006;2023-08-24T02:46:06;97240.78;;;21.81;69.96
41703;BME280;861;48.808;9.006;2023-08-24T02:48:34;97238.66;;;21.85;69.98
41703;BME280;861;48.808;9.006;2023-08-24T02:51:04;97249.31;;;21.87;70.35
41703;BME280;861;48.808;9.006;2023-08-24T02:53:33;97245.72;;;21.77;70.40
41703;BME280;861;48.808;9.006;2023-08-24T02:56:00;97245.03;;;21.73;70.20
41703;BME280;861;48.808;9.006;2023-08-24T02:58:26;97239.09;;;21.62;71.00
41703;BME280;861;48.808;9.006;2023-08-24T03:00:53;97232.84;;;21.71;70.59
41703;BME280;861;48.808;9.006;2023-08-24T03:03:20;97228.22;;;21.68;70.40
41703;BME280;861;48.808;9.006;2023-08-24T03:05:59;97228.63;;;21.79;70.33
41703;BME280;861;48.808;9.006;2023-08-24T03:08:26;97216.47;;;21.64;70.42
41703;BME280;861;48.808;9.006;2023-08-24T03:10:53;97222.94;;;21.61;71.00
41703;BME280;861;48.808;9.006;2023-08-24T03:13:20;97226.75;;;21.54;71.50
41703;BME280;861;48.808;9.006;2023-08-24T03:15:47;97220.81;;;21.65;70.77
41703;BME280;861;48.808;9.006;2023-08-24T03:18:16;97217.97;;;21.77;70.36
41703;BME280;861;48.808;9.006;2023-08-24T03:20:44;97219.56;;;21.66;70.87
41703;BME280;861;48.808;9.006;2023-08-24T03:23:12;97218.75;;;21.56;71.02
41703;BME280;861;48.808;9.006;2023-08-24T03:25:42;97214.19;;;21.41;72.14
41703;BME280;861;48.808;9.006;2023-08-24T03:28:10;97220.56;;;21.50;71.48
41703;BME280;861;48.808;9.006;2023-08-24T03:30:45;97209.22;;;21.57;71.62
41703;BME280;861;48.808;9.006;2023-08-24T03:33:14;97202.53;;;21.46;71.41
41703;BME280;861;48.808;9.006;2023-08-24T03:35:41;97200.78;;;21.39;72.09
41703;BME280;861;48.808;9.006;2023-08-24T03:38:09;97192.31;;;21.34;72.29
41703;BME280;861;48.808;9.006;2023-08-24T03:40:36;97196.28;;;21.33;72.33
41703;BME280;861;48.808;9.006;2023-08-24T03:43:03;97191.13;;;21.44;71.96
41703;BME280;861;48.808;9.006;2023-08-24T03:45:30;97179.34;;;21.52;71.72
41703;BME280;861;48.808;9.006;2023-08-24T03:47:57;97182.28;;;21.58;71.26
41703;BME280;861;48.808;9.006;2023-08-24T03:50:24;97189.56;;;21.73;70.97
41703;BME280;861;48.808;9.006;2023-08-24T03:52:52;97179.63;;;21.76;70.94
41703;BME280;861;48.808;9.006;2023-08-24T03:55:21;97177.41;;;21.71;71.17
41703;BME280;861;48.808;9.006;2023-08-24T03:57:47;97178.94;;;21.72;70.66
41703;BME280;861;48.808;9.006;2023-08-24T04:00:14;97170.63;;;21.72;70.91
41703;BME280;861;48.808;9.006;2023-08-24T04:02:43;97152.44;;;21.62;71.55
41703;BME280;861;48.808;9.006;2023-08-24T04:05:10;97162.63;;;21.43;71.56
41703;BME280;861;48.808;9.006;2023-08-24T04:07:36;97168.72;;;21.60;71.34
41703;BME280;861;48.808;9.006;2023-08-24T04:10:05;97169.88;;;21.41;71.39
41703;BME280;861;48.808;9.006;2023-08-24T04:12:33;97166.72;;;21.30;71.98
41703;BME280;861;48.808;9.006;2023-08-24T04:14:59;97169.03;;;21.31;72.07
41703;BME280;861;48.808;9.006;2023-08-24T04:17:26;97169.50;;;21.30;71.81
41703;BME280;861;48.808;9.006;2023-08-24T04:19:53;97153.56;;;21.43;71.86
41703;BME280;861;48.808;9.006;2023-08-24T04:22:19;97155.91;;;21.53;71.02
41703;BME280;861;48.808;9.006;2023-08-24T04:24:50;97152.44;;;21.62;71.22
41703;BME280;861;48.808;9.006;2023-08-24T04:27:16;97151.66;;;21.61;71.26
41703;BME280;861;48.808;9.006;2023-08-24T04:29:43;97146.97;;;21.49;71.53
41703;BME280;861;48.808;9.006;2023-08-24T04:32:09;97140.25;;;21.59;71.20
41703;BME280;861;48.808;9.006;2023-08-24T04:34:36;97141.75;;;21.51;71.30
41703;BME280;861;48.808;9.006;2023-08-24T04:37:03;97143.88;;;21.47;71.07
41703;BME280;861;48.808;9.006;2023-08-24T04:39:29;97149.75;;;21.49;71.32
41703;BME280;861;48.808;9.006;2023-08-24T04:41:56;97143.84;;;21.38;71.99
41703;BME280;861;48.808;9.006;2023-08-24T04:44:23;97153.66;;;21.30;72.19
41703;BME280;861;48.808;9.006;2023-08-24T04:46:50;97146.38;;;21.23;72.58
41703;BME280;861;48.808;9.006;2023-08-24T04:49:17;97152.75;;;21.33;72.10
41703;BME280;861;48.808;9.006;2023-08-24T04:51:44;97156.69;;;21.23;72.92
41703;BME280;861;48.808;9.006;2023-08-24T04:54:10;97157.69;;;21.38;72.39
41703;BME280;861;48.808;9.006;2023-08-24T04:56:37;97149.44;;;21.47;72.37
41703;BME280;861;48.808;9.006;2023-08-24T04:59:03;97155.44;;;21.46;72.31
41703;BME280;861;48.808;9.006;2023-08-24T05:01:30;97146.19;;;21.49;72.38
41703;BME280;861;48.808;9.006;2023-08-24T05:03:58;97147.94;;;21.55;71.81
41703;BME280;861;48.808;9.006;2023-08-24T05:06:24;97145.75;;;21.50;72.14
41703;BME280;861;48.808;9.006;2023-08-24T05:08:51;97129.47;;;21.61;71.51
41703;BME280;861;48.808;9.006;2023-08-24T05:11:22;97132.72;;;21.60;71.54
41703;BME280;861;48.808;9.006;2023-08-24T05:13:50;97130.53;;;21.55;72.17
41703;BME280;861;48.808;9.006;2023-08-24T05:16:17;97128.84;;;21.57;71.96
41703;BME280;861;48.808;9.006;2023-08-24T05:18:44;97124.28;;;21.42;72.52
41703;BME280;861;48.808;9.006;2023-08-24T05:21:11;97118.63;;;21.45;73.11
41703;BME280;861;48.808;9.006;2023-08-24T05:23:38;97119.94;;;21.32;73.04
41703;BME280;861;48.808;9.006;2023-08-24T05:26:04;97112.47;;;21.19;73.65
41703;BME280;861;48.808;9.006;2023-08-24T05:28:32;97116.94;;;21.17;73.88
41703;BME280;861;48.808;9.006;2023-08-24T05:30:59;97111.44;;;21.26;73.62
41703;BME280;861;48.808;9.006;2023-08-24T05:33:27;97111.06;;;21.37;73.14
41703;BME280;861;48.808;9.006;2023-08-24T05:35:57;97109.00;;;21.28;73.54
41703;BME280;861;48.808;9.006;2023-08-24T05:38:24;97105.69;;;21.42;73.65
41703;BME280;861;48.808;9.006;2023-08-24T05:40:51;97100.47;;;21.44;73.47
41703;BME280;861;48.808;9.006;2023-08-24T05:43:18;97101.63;;;21.34;74.06
41703;BME280;861;48.808;9.006;2023-08-24T05:45:46;97098.59;;;21.41;73.86
41703;BME280;861;48.808;9.006;2023-08-24T05:48:14;97097.41;;;21.51;73.50
41703;BME280;861;48.808;9.006;2023-08-24T05:50:46;97099.00;;;21.61;73.18
41703;BME280;861;48.808;9.006;2023-08-24T05:53:13;97099.25;;;21.54;74.00
41703;BME280;861;48.808;9.006;2023-08-24T05:55:40;97105.91;;;21.57;74.05
41703;BME280;861;48.808;9.006;2023-08-24T05:58:07;97100.72;;;21.68;73.68
41703;BME280;861;48.808;9.006;2023-08-24T06:00:34;97106.75;;;21.75;73.37
41703;BME280;861;48.808;9.006;2023-08-24T06:03:01;97112.34;;;21.84;73.06
41703;BME280;861;48.808;9.006;2023-08-24T06:05:30;97112.53;;;21.90;73.60
41703;BME280;861;48.808;9.006;2023-08-24T06:07:57;97106.78;;;21.84;74.33
41703;BME280;861;48.808;9.006;2023-08-24T06:10:27;97108.34;;;21.85;74.37
41703;BME280;861;48.808;9.006;2023-08-24T06:12:54;97109.72;;;21.81;74.14
41703;BME280;861;48.808;9.006;2023-08-24T06:15:20;97112.38;;;21.93;73.42
41703;BME280;861;48.808;9.006;2023-08-24T06:17:51;97120.84;;;21.90;73.39
41703;BME280;861;48.808;9.006;2023-08-24T06:20:18;97113.78;;;21.98;72.55
41703;BME280;861;48.808;9.006;2023-08-24T06:22:45;97121.50;;;22.03;72.93
41703;BME280;861;48.808;9.006;2023-08-24T06:25:12;97131.50;;;22.00;73.74
41703;BME280;861;48.808;9.006;2023-08-24T06:27:39;97130.63;;;22.21;72.71
41703;BME280;861;48.808;9.006;2023-08-24T06:30:06;97137.25;;;22.24;72.74
41703;BME280;861;48.808;9.006;2023-08-24T06:32:34;97146.97;;;22.28;72.89
41703;BME280;861;48.808;9.006;2023-08-24T06:35:00;97148.66;;;22.17;73.42
41703;BME280;861;48.808;9.006;2023-08-24T06:41:28;97176.75;;;22.37;72.40
41703;BME280;861;48.808;9.006;2023-08-24T06:43:54;97185.41;;;22.48;72.00
41703;BME280;861;48.808;9.006;2023-08-24T06:46:21;97200.22;;;22.54;71.00
41703;BME280;861;48.808;9.006;2023-08-24T06:48:48;97209.59;;;22.47;71.41
41703;BME280;861;48.808;9.006;2023-08-24T06:51:14;97210.09;;;22.55;71.43
41703;BME280;861;48.808;9.006;2023-08-24T06:53:42;97213.44;;;22.41;72.12
41703;BME280;861;48.808;9.006;2023-08-24T06:56:09;97208.53;;;22.45;73.15
41703;BME280;861;48.808;9.006;2023-08-24T06:58:36;97197.47;;;22.54;72.40
41703;BME280;861;48.808;9.006;2023-08-24T07:01:03;97160.75;;;22.68;71.83
41703;BME280;861;48.808;9.006;2023-08-24T07:03:32;97153.84;;;22.82;71.96
41703;BME280;861;48.808;9.006;2023-08-24T07:06:00;97158.94;;;22.83;71.84
41703;BME280;861;48.808;9.006;2023-08-24T07:08:27;97154.31;;;22.89;71.38
41703;BME280;861;48.808;9.006;2023-08-24T07:10:53;97160.16;;;23.00;71.09
41703;BME280;861;48.808;9.006;2023-08-24T07:13:20;97135.91;;;23.10;70.49
41703;BME280;861;48.808;9.006;2023-08-24T07:15:46;97140.03;;;23.23;70.39
41703;BME280;861;48.808;9.006;2023-08-24T07:18:13;97135.13;;;23.27;70.46
41703;BME280;861;48.808;9.006;2023-08-24T07:20:39;97147.16;;;23.33;69.75
41703;BME280;861;48.808;9.006;2023-08-24T07:23:06;97144.34;;;23.42;69.04
41703;BME280;861;48.808;9.006;2023-08-24T07:25:32;97135.69;;;23.49;69.34
41703;BME280;861;48.808;9.006;2023-08-24T07:28:00;97144.31;;;23.51;69.37
41703;BME280;861;48.808;9.006;2023-08-24T07:30:28;97141.50;;;23.69;68.94
41703;BME280;861;48.808;9.006;2023-08-24T07:32:55;97138.16;;;23.89;68.31
41703;BME280;861;48.808;9.006;2023-08-24T07:35:22;97144.00;;;24.00;67.83
41703;BME280;861;48.808;9.006;2023-08-24T07:37:52;97137.88;;;24.20;66.31
41703;BME280;861;48.808;9.006;2023-08-24T07:40:19;97135.94;;;24.35;66.30
41703;BME280;861;48.808;9.006;2023-08-24T07:42:51;97127.91;;;24.51;65.21
41703;BME280;861;48.808;9.006;2023-08-24T07:45:21;97135.63;;;24.56;65.73
41703;BME280;861;48.808;9.006;2023-08-24T07:47:47;97134.03;;;24.64;65.57
41703;BME280;861;48.808;9.006;2023-08-24T07:50:14;97137.06;;;24.75;65.31
41703;BME280;861;48.808;9.006;2023-08-24T07:52:41;97137.31;;;24.77;65.56
41703;BME280;861;48.808;9.006;2023-08-24T07:55:08;97144.38;;;24.87;65.26
41703;BME280;861;48.808;9.006;2023-08-24T07:57:36;97151.50;;;25.03;64.17
41703;BME280;861;48.808;9.006;2023-08-24T08:00:05;97155.19;;;25.23;63.93
41703;BME280;861;48.808;9.006;2023-08-24T08:02:34;97154.34;;;25.32;64.25
41703;BME280;861;48.808;9.006;2023-08-24T08:05:00;97158.66;;;25.33;64.94
41703;BME280;861;48.808;9.006;2023-08-24T08:07:27;97155.41;;;25.34;65.48
41703;BME280;861;48.808;9.006;2023-08-24T08:09:54;97159.97;;;25.46;64.64
41703;BME280;861;48.808;9.006;2023-08-24T08:12:22;97159.84;;;25.55;64.63
41703;BME280;861;48.808;9.006;2023-08-24T08:14:49;97154.47;;;25.67;64.39
41703;BME280;861;48.808;9.006;2023-08-24T08:17:16;97148.97;;;25.72;63.91
41703;BME280;861;48.808;9.006;2023-08-24T08:19:42;97152.50;;;25.87;63.07
41703;BME280;861;48.808;9.006;2023-08-24T08:22:09;97139.66;;;26.10;62.04
41703;BME280;861;48.808;9.006;2023-08-24T08:24:35;97139.59;;;26.04;62.87
41703;BME280;861;48.808;9.006;2023-08-24T08:27:02;97145.97;;;26.05;62.90
41703;BME280;861;48.808;9.006;2023-08-24T08:29:28;97147.34;;;26.15;62.50
41703;BME280;861;48.808;9.006;2023-08-24T08:31:56;97145.63;;;26.17;62.91
41703;BME280;861;48.808;9.006;2023-08-24T08:34:22;97144.53;;;26.29;62.59
41703;BME280;861;48.808;9.006;2023-08-24T08:36:49;97157.94;;;26.45;62.37
41703;BME280;861;48.808;9.006;2023-08-24T08:39:15;97147.59;;;26.66;62.13
41703;BME280;861;48.808;9.006;2023-08-24T08:41:46;97152.13;;;26.83;61.38
41703;BME280;861;48.808;9.006;2023-08-24T08:44:14;97147.78;;;26.82;61.83
41703;BME280;861;48.808;9.006;2023-08-24T08:46:43;97141.78;;;26.89;60.88
41703;BME280;861;48.808;9.006;2023-08-24T08:49:13;97142.06;;;27.17;60.00
41703;BME280;861;48.808;9.006;2023-08-24T08:51:42;97147.59;;;27.12;60.70
41703;BME280;861;48.808;9.006;2023-08-24T08:54:09;97138.84;;;27.24;59.91
41703;BME280;861;48.808;9.006;2023-08-24T08:56:36;97141.47;;;27.59;58.27
41703;BME280;861;48.808;9.006;2023-08-24T08:59:09;97144.94;;;27.48;58.43
41703;BME280;861;48.808;9.006;2023-08-24T09:01:39;97151.34;;;27.54;58.60
41703;BME280;861;48.808;9.006;2023-08-24T09:04:07;97145.19;;;27.50;59.42
41703;BME280;861;48.808;9.006;2023-08-24T09:06:34;97140.66;;;27.53;59.39
41703;BME280;861;48.808;9.006;2023-08-24T09:09:02;97121.41;;;27.66;59.60
41703;BME280;861;48.808;9.006;2023-08-24T09:11:29;97123.06;;;27.78;58.99
41703;BME280;861;48.808;9.006;2023-08-24T09:13:55;97117.72;;;27.80;59.56
41703;BME280;861;48.808;9.006;2023-08-24T09:16:22;97112.28;;;27.96;59.16
41703;BME280;861;48.808;9.006;2023-08-24T09:18:48;97108.00;;;28.06;60.18
41703;BME280;861;48.808;9.006;2023-08-24T09:21:16;97101.66;;;28.54;57.06
41703;BME280;861;48.808;9.006;2023-08-24T09:23:55;97102.41;;;28.49;57.41
41703;BME280;861;48.808;9.006;2023-08-24T09:26:48;97094.31;;;28.62;56.60
41703;BME280;861;48.808;9.006;2023-08-24T09:29:16;97097.88;;;28.62;57.55
41703;BME280;861;48.808;9.006;2023-08-24T09:31:44;97096.88;;;28.76;56.84
41703;BME280;861;48.808;9.006;2023-08-24T09:34:11;97086.75;;;28.95;55.75
41703;BME280;861;48.808;9.006;2023-08-24T09:36:39;97091.41;;;29.09;55.37
41703;BME280;861;48.808;9.006;2023-08-24T09:39:06;97092.94;;;29.10;55.62
41703;BME280;861;48.808;9.006;2023-08-24T09:41:48;97081.47;;;29.14;55.17
41703;BME280;861;48.808;9.006;2023-08-24T09:44:18;97077.41;;;29.26;56.71
41703;BME280;861;48.808;9.006;2023-08-24T09:46:45;97074.09;;;29.38;55.31
41703;BME280;861;48.808;9.006;2023-08-24T09:49:12;97061.34;;;29.54;55.80
41703;BME280;861;48.808;9.006;2023-08-24T09:51:41;97055.22;;;29.77;55.80
41703;BME280;861;48.808;9.006;2023-08-24T09:54:11;97042.16;;;29.91;55.03
41703;BME280;861;48.808;9.006;2023-08-24T09:56:41;97029.09;;;30.10;54.23
41703;BME280;861;48.808;9.006;2023-08-24T09:59:15;97030.84;;;30.19;54.16
41703;BME280;861;48.808;9.006;2023-08-24T10:01:50;97021.91;;;30.26;54.48
41703;BME280;861;48.808;9.006;2023-08-24T10:04:28;97001.44;;;30.36;54.12
41703;BME280;861;48.808;9.006;2023-08-24T10:07:10;96999.63;;;30.44;53.04
41703;BME280;861;48.808;9.006;2023-08-24T10:17:22;96988.16;;;31.18;52.05
41703;BME280;861;48.808;9.006;2023-08-24T10:19:52;96977.81;;;31.32;51.45
41703;BME280;861;48.808;9.006;2023-08-24T10:30:24;96972.72;;;31.84;51.30
41703;BME280;861;48.808;9.006;2023-08-24T10:32:53;96976.03;;;32.06;48.54
41703;BME280;861;48.808;9.006;2023-08-24T10:35:22;96971.78;;;32.18;49.69
41703;BME280;861;48.808;9.006;2023-08-24T10:37:53;96964.25;;;32.26;48.11
41703;BME280;861;48.808;9.006;2023-08-24T10:40:36;96965.88;;;32.40;49.68
41703;BME280;861;48.808;9.006;2023-08-24T10:43:10;96962.91;;;32.51;49.39
41703;BME280;861;48.808;9.006;2023-08-24T10:46:02;96955.06;;;32.63;48.54
41703;BME280;861;48.808;9.006;2023-08-24T10:51:24;96933.34;;;33.08;48.21
41703;BME280;861;48.808;9.006;2023-08-24T10:53:59;96932.41;;;33.19;48.90
41703;BME280;861;48.808;9.006;2023-08-24T10:56:39;96925.25;;;33.31;49.11
41703;BME280;861;48.808;9.006;2023-08-24T10:59:19;96928.09;;;33.31;47.58
41703;BME280;861;48.808;9.006;2023-08-24T11:01:56;96918.31;;;33.32;48.22
41703;BME280;861;48.808;9.006;2023-08-24T11:04:23;96922.81;;;33.40;48.51
41703;BME280;861;48.808;9.006;2023-08-24T11:07:01;96920.88;;;33.48;48.26
41703;BME280;861;48.808;9.006;2023-08-24T11:09:47;96917.28;;;33.61;48.68
41703;BME280;861;48.808;9.006;2023-08-24T11:12:14;96914.06;;;33.96;46.98
41703;BME280;861;48.808;9.006;2023-08-24T11:14:52;96911.00;;;34.07;48.94
41703;BME280;861;48.808;9.006;2023-08-24T11:17:25;96919.34;;;34.26;48.36
41703;BME280;861;48.808;9.006;2023-08-24T11:19:59;96916.91;;;34.43;47.35
41703;BME280;861;48.808;9.006;2023-08-24T11:22:27;96910.88;;;34.59;45.40
41703;BME280;861;48.808;9.006;2023-08-24T11:24:54;96900.22;;;34.65;46.80
41703;BME280;861;48.808;9.006;2023-08-24T11:27:22;96893.19;;;34.79;46.40
41703;BME280;861;48.808;9.006;2023-08-24T11:30:00;96879.19;;;34.94;46.47
41703;BME280;861;48.808;9.006;2023-08-24T11:32:27;96881.88;;;35.00;45.95
41703;BME280;861;48.808;9.006;2023-08-24T11:34:55;96878.59;;;35.16;44.92
41703;BME280;861;48.808;9.006;2023-08-24T11:37:22;96877.72;;;35.21;45.87
41703;BME280;861;48.808;9.006;2023-08-24T11:39:48;96873.72;;;35.37;46.12
41703;BME280;861;48.808;9.006;2023-08-24T11:42:15;96869.25;;;35.49;45.00
41703;BME280;861;48.808;9.006;2023-08-24T11:44:49;96863.53;;;35.70;45.19
41703;BME280;861;48.808;9.006;2023-08-24T11:47:20;96866.00;;;35.74;44.43
41703;BME280;861;48.808;9.006;2023-08-24T11:49:49;96869.19;;;35.70;44.50
41703;BME280;861;48.808;9.006;2023-08-24T11:52:17;96872.50;;;35.54;44.44
41703;BME280;861;48.808;9.006;2023-08-24T11:54:44;96869.47;;;35.52;43.38
41703;BME280;861;48.808;9.006;2023-08-24T11:57:13;96870.63;;;35.35;45.27
41703;BME280;861;48.808;9.006;2023-08-24T11:59:40;96863.63;;;35.57;45.48
41703;BME280;861;48.808;9.006;2023-08-24T12:02:10;96865.19;;;35.94;46.11
41703;BME280;861;48.808;9.006;2023-08-24T12:12:41;96837.84;;;36.11;44.30
41703;BME280;861;48.808;9.006;2023-08-24T12:15:08;96836.16;;;36.23;43.37
41703;BME280;861;48.808;9.006;2023-08-24T12:21:44;96823.78;;;36.56;44.13
41703;BME280;861;48.808;9.006;2023-08-24T12:24:14;96821.34;;;36.75;43.73
41703;BME280;861;48.808;9.006;2023-08-24T12:26:41;96824.41;;;36.85;43.51
41703;BME280;861;48.808;9.006;2023-08-24T12:29:09;96815.91;;;36.77;43.16
41703;BME280;861;48.808;9.006;2023-08-24T12:31:37;96806.22;;;36.65;42.55
41703;BME280;861;48.808;9.006;2023-08-24T12:34:09;96787.47;;;36.62;44.57
41703;BME280;861;48.808;9.006;2023-08-24T12:36:38;96786.94;;;36.79;44.24
41703;BME280;861;48.808;9.006;2023-08-24T12:39:07;96792.97;;;36.68;43.74
41703;BME280;861;48.808;9.006;2023-08-24T12:41:36;96774.44;;;36.67;43.67
41703;BME280;861;48.808;9.006;2023-08-24T12:44:03;96774.66;;;36.76;41.97
41703;BME280;861;48.808;9.006;2023-08-24T12:46:34;96766.66;;;36.98;44.13
41703;BME280;861;48.808;9.006;2023-08-24T12:49:02;96764.94;;;37.32;42.88
41703;BME280;861;48.808;9.006;2023-08-24T12:51:29;96771.28;;;37.63;42.87
41703;BME280;861;48.808;9.006;2023-08-24T12:53:55;96764.59;;;37.83;42.43
41703;BME280;861;48.808;9.006;2023-08-24T12:56:22;96762.78;;;38.02;42.26
41703;BME280;861;48.808;9.006;2023-08-24T12:58:48;96757.84;;;38.03;41.43
41703;BME280;861;48.808;9.006;2023-08-24T13:01:15;96744.63;;;37.90;41.83
41703;BME280;861;48.808;9.006;2023-08-24T13:03:43;96751.53;;;37.80;40.95
41703;BME280;861;48.808;9.006;2023-08-24T13:06:09;96744.75;;;37.60;41.81
41703;BME280;861;48.808;9.006;2023-08-24T13:08:36;96749.16;;;37.46;42.41
41703;BME280;861;48.808;9.006;2023-08-24T13:11:03;96750.69;;;37.40;42.21
41703;BME280;861;48.808;9.006;2023-08-24T13:13:30;96751.69;;;37.35;41.42
41703;BME280;861;48.808;9.006;2023-08-24T13:15:56;96746.72;;;37.43;41.08
41703;BME280;861;48.808;9.006;2023-08-24T13:18:23;96740.78;;;37.56;40.68
41703;BME280;861;48.808;9.006;2023-08-24T13:20:50;96741.91;;;37.60;41.54
41703;BME280;861;48.808;9.006;2023-08-24T13:23:16;96733.78;;;37.57;41.99
41703;BME280;861;48.808;9.006;2023-08-24T13:25:43;96719.19;;;37.68;41.99
41703;BME280;861;48.808;9.006;2023-08-24T13:28:10;96712.81;;;37.84;41.29
41703;BME280;861;48.808;9.006;2023-08-24T13:30:36;96693.97;;;37.96;39.73
41703;BME280;861;48.808;9.006;2023-08-24T13:33:03;96688.53;;;37.91;40.05
41703;BME280;861;48.808;9.006;2023-08-24T13:35:30;96681.63;;;38.01;40.95
41703;BME280;861;48.808;9.006;2023-08-24T13:37:56;96669.94;;;38.22;40.16
41703;BME280;861;48.808;9.006;2023-08-24T13:40:23;96666.22;;;38.12;39.72
41703;BME280;861;48.808;9.006;2023-08-24T13:42:50;96665.38;;;37.94;39.52
41703;BME280;861;48.808;9.006;2023-08-24T13:45:16;96642.75;;;38.04;39.51
41703;BME280;861;48.808;9.006;2023-08-24T13:47:43;96648.00;;;38.15;39.17
41703;BME280;861;48.808;9.006;2023-08-24T13:50:11;96648.66;;;38.48;39.45
41703;BME280;861;48.808;9.006;2023-08-24T13:52:37;96645.06;;;38.89;36.73
41703;BME280;861;48.808;9.006;2023-08-24T13:55:06;96655.09;;;38.73;38.00
41703;BME280;861;48.808;9.006;2023-08-24T13:57:33;96648.06;;;38.74;37.25
41703;BME280;861;48.808;9.006;2023-08-24T13:59:59;96656.19;;;38.77;36.74
41703;BME280;861;48.808;9.006;2023-08-24T14:02:27;96654.88;;;38.54;37.02
41703;BME280;861;48.808;9.006;2023-08-24T14:04:53;96664.53;;;38.09;36.78
41703;BME280;861;48.808;9.006;2023-08-24T14:07:20;96658.09;;;37.76;36.52
41703;BME280;861;48.808;9.006;2023-08-24T14:09:47;96667.78;;;37.26;36.88
41703;BME280;861;48.808;9.006;2023-08-24T14:12:13;96687.94;;;36.60;37.52
41703;BME280;861;48.808;9.006;2023-08-24T14:14:40;96690.00;;;36.22;38.23
41703;BME280;861;48.808;9.006;2023-08-24T14:17:07;96686.34;;;35.92;38.49
41703;BME280;861;48.808;9.006;2023-08-24T14:19:34;96681.41;;;35.77;38.27
41703;BME280;861;48.808;9.006;2023-08-24T14:22:01;96684.13;;;35.47;39.39
41703;BME280;861;48.808;9.006;2023-08-24T14:24:27;96681.34;;;35.19;40.33